createdAt,value
2018-03-30T00:01:16.955Z,6.00
2018-03-30T00:03:44.422Z,6.07
2018-03-30T00:06:11.866Z,6.70
2018-03-30T00:08:39.307Z,6.43
2018-03-30T00:11:07.535Z,6.07
2018-03-30T00:13:34.974Z,6.97
2018-03-30T00:16:02.417Z,6.90
2018-03-30T00:18:30.672Z,7.23
2018-03-30T00:20:58.125Z,7.17
2018-03-30T00:23:25.591Z,8.17
2018-03-30T00:25:53.040Z,7.30
2018-03-30T00:28:20.488Z,7.40
2018-03-30T00:30:47.942Z,8.47
2018-03-30T00:33:15.451Z,8.73
2018-03-30T00:35:42.900Z,8.83
2018-03-30T00:38:10.358Z,8.17
2018-03-30T00:40:37.830Z,9.37
2018-03-30T00:43:05.272Z,8.50
2018-03-30T00:45:32.726Z,9.10
2018-03-30T00:48:00.185Z,8.37
2018-03-30T00:50:27.635Z,8.33
2018-03-30T00:52:55.098Z,7.90
2018-03-30T00:55:22.564Z,8.07
2018-03-30T00:57:49.998Z,8.30
2018-03-30T01:00:18.223Z,7.87
2018-03-30T01:02:45.672Z,7.70
2018-03-30T01:05:13.109Z,7.10
2018-03-30T01:07:41.332Z,7.60
2018-03-30T01:10:08.793Z,7.83
2018-03-30T01:12:36.250Z,7.40
2018-03-30T01:15:03.708Z,8.10
2018-03-30T01:17:31.170Z,7.47
2018-03-30T01:19:58.627Z,7.47
2018-03-30T01:22:26.042Z,6.70
2018-03-30T01:24:53.488Z,6.77
2018-03-30T01:27:20.943Z,6.57
2018-03-30T01:29:48.376Z,7.57
2018-03-30T01:32:15.837Z,7.17
2018-03-30T01:34:43.272Z,6.73
2018-03-30T01:37:11.478Z,7.00
2018-03-30T01:39:38.928Z,6.90
2018-03-30T01:42:06.439Z,7.37
2018-03-30T01:44:33.873Z,7.23
2018-03-30T01:47:01.317Z,8.07
2018-03-30T01:49:28.768Z,8.30
2018-03-30T01:51:56.977Z,8.57
2018-03-30T01:54:24.431Z,8.00
2018-03-30T01:56:51.905Z,9.33
2018-03-30T01:59:19.357Z,7.77
2018-03-30T02:01:46.853Z,8.90
2018-03-30T02:04:14.300Z,8.30
2018-03-30T02:06:41.767Z,8.93
2018-03-30T02:09:09.319Z,9.23
2018-03-30T02:11:36.797Z,8.40
2018-03-30T02:14:04.250Z,8.57
2018-03-30T02:16:31.721Z,9.00
2018-03-30T02:18:59.170Z,9.33
2018-03-30T02:21:26.748Z,8.40
2018-03-30T02:23:54.191Z,9.20
2018-03-30T02:26:21.645Z,8.87
2018-03-30T02:28:49.233Z,8.97
2018-03-30T02:31:16.693Z,9.43
2018-03-30T02:33:44.140Z,9.00
2018-03-30T02:36:11.582Z,8.90
2018-03-30T02:38:39.855Z,10.00
2018-03-30T02:41:08.061Z,10.60
2018-03-30T02:43:35.515Z,9.37
2018-03-30T02:46:02.972Z,9.20
2018-03-30T02:48:31.207Z,10.20
2018-03-30T02:50:58.655Z,10.13
2018-03-30T02:53:26.099Z,9.53
2018-03-30T02:55:53.540Z,9.73
2018-03-30T02:58:20.990Z,9.27
2018-03-30T03:00:49.202Z,10.30
2018-03-30T03:03:16.658Z,8.90
2018-03-30T03:05:44.089Z,9.83
2018-03-30T03:08:11.536Z,9.60
2018-03-30T03:10:38.991Z,10.53
2018-03-30T03:13:06.433Z,10.23
2018-03-30T03:15:33.886Z,9.73
2018-03-30T03:18:01.351Z,10.63
2018-03-30T03:20:28.777Z,10.63
2018-03-30T03:22:56.994Z,10.50
2018-03-30T03:25:24.435Z,10.20
2018-03-30T03:27:51.900Z,9.77
2018-03-30T03:30:20.120Z,9.90
2018-03-30T03:32:47.636Z,10.43
2018-03-30T03:35:15.072Z,11.23
2018-03-30T03:37:43.302Z,10.27
2018-03-30T03:40:11.506Z,9.93
2018-03-30T03:42:38.975Z,10.60
2018-03-30T03:45:06.436Z,10.50
2018-03-30T03:47:33.892Z,10.37
2018-03-30T03:50:01.356Z,10.37
2018-03-30T03:52:28.796Z,10.77
2018-03-30T03:54:56.258Z,10.83
2018-03-30T03:57:23.720Z,11.00
2018-03-30T03:59:51.175Z,11.17
2018-03-30T04:02:18.630Z,11.13
2018-03-30T04:04:46.078Z,10.47
2018-03-30T04:07:14.308Z,10.90
2018-03-30T04:09:41.753Z,11.43
2018-03-30T04:12:09.201Z,10.37
2018-03-30T04:14:36.662Z,10.53
2018-03-30T04:17:04.110Z,11.87
2018-03-30T04:19:31.616Z,10.60
2018-03-30T04:21:59.077Z,11.50
2018-03-30T04:24:26.522Z,10.90
2018-03-30T04:26:53.958Z,11.73
2018-03-30T04:29:21.420Z,10.60
2018-03-30T04:31:48.868Z,11.23
2018-03-30T04:34:17.078Z,10.90
2018-03-30T04:36:44.517Z,10.60
2018-03-30T04:39:12.770Z,10.03
2018-03-30T04:41:40.257Z,10.20
2018-03-30T04:44:08.477Z,9.77
2018-03-30T04:46:35.938Z,9.70
2018-03-30T04:49:03.388Z,10.17
2018-03-30T04:51:30.844Z,9.90
2018-03-30T04:53:58.283Z,9.83
2018-03-30T04:56:26.504Z,10.27
2018-03-30T04:58:53.967Z,9.07
2018-03-30T05:01:21.441Z,9.07
2018-03-30T05:03:48.881Z,8.83
2018-03-30T05:06:16.351Z,8.13
2018-03-30T05:08:43.799Z,8.60
2018-03-30T05:11:11.276Z,8.77
2018-03-30T05:13:38.773Z,8.23
2018-03-30T05:16:06.286Z,7.83
2018-03-30T05:18:33.731Z,7.57
2018-03-30T05:21:01.950Z,8.70
2018-03-30T05:23:29.400Z,7.97
2018-03-30T05:25:56.835Z,7.90
2018-03-30T05:28:25.047Z,7.47
2018-03-30T05:30:52.492Z,8.00
2018-03-30T05:33:19.941Z,7.63
2018-03-30T05:35:48.154Z,7.23
2018-03-30T05:38:15.614Z,7.87
2018-03-30T05:40:43.041Z,7.40
2018-03-30T05:43:11.266Z,7.50
2018-03-30T05:45:38.717Z,7.57
2018-03-30T05:48:06.196Z,6.87
2018-03-30T05:50:33.639Z,7.30
2018-03-30T05:53:01.111Z,7.00
2018-03-30T05:55:28.554Z,7.60
2018-03-30T05:57:56.016Z,7.33
2018-03-30T06:00:23.473Z,7.03
2018-03-30T06:02:51.676Z,7.03
2018-03-30T06:05:19.116Z,7.13
2018-03-30T06:07:47.347Z,7.20
2018-03-30T06:10:14.800Z,7.60
2018-03-30T06:12:42.926Z,7.10
2018-03-30T06:15:11.366Z,6.93
2018-03-30T06:17:38.815Z,6.53
2018-03-30T06:20:06.259Z,6.67
2018-03-30T06:22:33.712Z,6.57
2018-03-30T06:25:01.138Z,7.00
2018-03-30T06:27:28.599Z,6.70
2018-03-30T06:29:56.048Z,6.50
2018-03-30T06:32:23.540Z,6.07
2018-03-30T06:34:50.944Z,6.47
2018-03-30T06:37:18.439Z,6.43
2018-03-30T06:39:45.905Z,6.83
2018-03-30T06:42:13.357Z,5.93
2018-03-30T06:44:40.796Z,6.63
2018-03-30T06:47:08.246Z,7.90
2018-03-30T06:49:35.688Z,7.13
2018-03-30T06:52:03.891Z,6.53
2018-03-30T06:54:31.335Z,6.10
2018-03-30T06:56:59.588Z,6.40
2018-03-30T06:59:27.043Z,6.03
2018-03-30T07:01:54.487Z,6.53
2018-03-30T07:04:21.929Z,6.70
2018-03-30T07:06:49.477Z,5.70
2018-03-30T07:09:16.922Z,6.17
2018-03-30T07:11:45.139Z,6.23
2018-03-30T07:14:12.600Z,6.10
2018-03-30T07:16:40.058Z,6.50
2018-03-30T07:19:07.543Z,6.17
2018-03-30T07:21:34.981Z,6.47
2018-03-30T07:24:02.477Z,6.53
2018-03-30T07:26:29.907Z,5.93
2018-03-30T07:28:57.374Z,6.77
2018-03-30T07:31:24.831Z,6.67
2018-03-30T07:33:52.267Z,6.00
2018-03-30T07:36:20.529Z,5.83
2018-03-30T07:38:47.968Z,5.80
2018-03-30T07:41:15.422Z,6.43
2018-03-30T07:43:42.914Z,6.03
2018-03-30T07:46:10.379Z,6.40
2018-03-30T07:48:37.820Z,6.13
2018-03-30T07:51:05.274Z,6.23
2018-03-30T07:53:32.742Z,6.43
2018-03-30T07:56:00.213Z,6.27
2018-03-30T07:58:28.419Z,6.47
2018-03-30T08:00:56.636Z,5.90
2018-03-30T08:03:24.085Z,6.17
2018-03-30T08:05:51.548Z,6.73
2018-03-30T08:08:18.973Z,6.47
2018-03-30T08:10:46.438Z,6.13
2018-03-30T08:13:13.879Z,6.17
2018-03-30T08:15:41.356Z,5.63
2018-03-30T08:18:10.307Z,5.63
2018-03-30T08:20:37.726Z,5.70
2018-03-30T08:23:05.167Z,5.50
2018-03-30T08:25:32.627Z,5.40
2018-03-30T08:28:00.077Z,5.03
2018-03-30T08:30:27.552Z,5.10
2018-03-30T08:32:55.087Z,5.43
2018-03-30T08:35:22.549Z,5.10
2018-03-30T08:37:50.010Z,5.00
2018-03-30T08:40:17.504Z,4.70
2018-03-30T08:42:44.962Z,4.23
2018-03-30T08:45:12.448Z,4.57
2018-03-30T08:47:39.915Z,4.20
2018-03-30T08:50:07.373Z,4.03
2018-03-30T08:52:34.819Z,4.57
2018-03-30T08:55:02.284Z,4.77
2018-03-30T08:57:29.764Z,5.10
2018-03-30T08:59:57.212Z,5.43
2018-03-30T09:02:24.651Z,6.30
2018-03-30T09:04:52.104Z,6.60
2018-03-30T09:07:19.555Z,7.73
2018-03-30T09:09:46.997Z,7.20
2018-03-30T09:12:15.209Z,6.93
2018-03-30T09:14:42.673Z,6.87
2018-03-30T09:17:10.129Z,5.90
2018-03-30T09:19:37.590Z,5.30
2018-03-30T09:22:05.050Z,5.10
2018-03-30T09:24:33.254Z,4.40
2018-03-30T09:27:00.744Z,4.83
2018-03-30T09:29:28.158Z,4.93
2018-03-30T09:31:55.598Z,4.57
2018-03-30T09:34:23.820Z,4.63
2018-03-30T09:36:51.258Z,5.43
2018-03-30T09:39:18.715Z,5.23
2018-03-30T09:41:46.150Z,5.27
2018-03-30T09:44:13.604Z,5.27
2018-03-30T09:46:41.062Z,5.70
2018-03-30T09:49:08.477Z,5.73
2018-03-30T09:51:35.935Z,5.73
2018-03-30T09:54:03.359Z,5.40
2018-03-30T09:56:30.798Z,5.10
2018-03-30T09:58:58.244Z,5.57
2018-03-30T10:01:25.707Z,5.20
2018-03-30T10:03:54.039Z,5.17
2018-03-30T10:06:22.242Z,5.20
2018-03-30T10:08:49.679Z,4.77
2018-03-30T10:11:17.878Z,3.97
2018-03-30T10:13:45.319Z,4.10
2018-03-30T10:16:13.538Z,4.20
2018-03-30T10:18:40.984Z,4.80
2018-03-30T10:21:08.441Z,4.30
2018-03-30T10:23:35.891Z,4.13
2018-03-30T10:26:04.106Z,4.30
2018-03-30T10:28:31.547Z,4.13
2018-03-30T10:30:58.989Z,4.63
2018-03-30T10:33:27.203Z,3.83
2018-03-30T10:35:54.660Z,4.40
2018-03-30T10:38:22.142Z,4.37
2018-03-30T10:40:49.619Z,4.20
2018-03-30T10:43:17.065Z,4.00
2018-03-30T10:45:44.520Z,3.77
2018-03-30T10:48:11.962Z,4.37
2018-03-30T10:50:40.171Z,4.40
2018-03-30T10:53:07.628Z,3.93
2018-03-30T10:55:35.085Z,4.30
2018-03-30T10:58:03.768Z,4.57
2018-03-30T11:00:31.202Z,4.60
2018-03-30T11:02:59.433Z,4.10
2018-03-30T11:05:26.903Z,4.23
2018-03-30T11:07:54.348Z,3.83
2018-03-30T11:10:21.809Z,4.33
2018-03-30T11:12:49.255Z,3.83
2018-03-30T11:15:16.730Z,4.40
2018-03-30T11:17:44.195Z,4.00
2018-03-30T11:20:11.637Z,3.60
2018-03-30T11:22:39.842Z,3.50
2018-03-30T11:25:07.299Z,3.60
2018-03-30T11:27:34.726Z,3.80
2018-03-30T11:30:04.163Z,3.90
2018-03-30T11:32:32.358Z,4.80
2018-03-30T11:35:00.579Z,4.53
2018-03-30T11:37:28.040Z,4.73
2018-03-30T11:39:55.492Z,4.80
2018-03-30T11:42:22.955Z,4.57
2018-03-30T11:44:50.421Z,4.40
2018-03-30T11:47:17.887Z,4.13
2018-03-30T11:49:45.330Z,4.80
2018-03-30T11:52:12.791Z,4.83
2018-03-30T11:54:40.258Z,4.40
2018-03-30T11:57:07.695Z,4.73
2018-03-30T11:59:35.151Z,5.00
2018-03-30T12:02:02.610Z,5.00
2018-03-30T12:04:30.068Z,4.23
2018-03-30T12:06:57.523Z,4.87
2018-03-30T12:09:25.743Z,4.80
2018-03-30T12:11:53.206Z,4.33
2018-03-30T12:14:20.668Z,5.00
2018-03-30T12:16:48.895Z,5.50
2018-03-30T12:19:17.107Z,4.77
2018-03-30T12:21:44.567Z,4.53
2018-03-30T12:24:12.068Z,4.60
2018-03-30T12:26:39.754Z,4.80
2018-03-30T12:29:07.183Z,5.23
2018-03-30T12:31:34.629Z,4.40
2018-03-30T12:34:02.062Z,4.43
2018-03-30T12:36:30.269Z,4.23
2018-03-30T12:38:57.731Z,5.97
2018-03-30T12:41:25.200Z,4.57
2018-03-30T12:43:52.659Z,3.87
2018-03-30T12:46:20.117Z,4.10
2018-03-30T12:48:47.560Z,4.57
2018-03-30T12:51:15.786Z,4.23
2018-03-30T12:53:43.230Z,4.47
2018-03-30T12:56:10.685Z,4.23
2018-03-30T12:58:38.145Z,3.60
2018-03-30T13:01:05.608Z,3.60
2018-03-30T13:03:33.061Z,4.10
2018-03-30T13:06:00.514Z,3.80
2018-03-30T13:08:28.720Z,4.00
2018-03-30T13:10:56.163Z,3.50
2018-03-30T13:13:23.612Z,3.83
2018-03-30T13:15:51.809Z,4.40
2018-03-30T13:18:19.288Z,4.07
2018-03-30T13:20:46.735Z,4.07
2018-03-30T13:23:14.958Z,3.77
2018-03-30T13:25:42.404Z,3.97
2018-03-30T13:28:09.874Z,3.43
2018-03-30T13:30:37.337Z,4.00
2018-03-30T13:33:04.791Z,4.13
2018-03-30T13:35:32.257Z,3.63
2018-03-30T13:37:59.698Z,3.90
2018-03-30T13:40:27.160Z,3.40
2018-03-30T13:42:54.618Z,3.40
2018-03-30T13:45:22.093Z,3.23
2018-03-30T13:47:49.567Z,2.80
2018-03-30T13:50:20.805Z,2.80
2018-03-30T13:52:53.736Z,2.70
2018-03-30T13:55:22.612Z,2.60
2018-03-30T13:57:53.463Z,2.47
2018-03-30T14:00:24.758Z,2.20
2018-03-30T14:03:03.760Z,2.50
2018-03-30T14:05:32.047Z,2.40
2018-03-30T14:08:01.688Z,2.57
2018-03-30T14:10:32.670Z,2.77
2018-03-30T14:13:00.131Z,2.80
2018-03-30T14:15:37.481Z,2.77
2018-03-30T14:18:25.398Z,2.20
2018-03-30T14:20:54.332Z,2.63
2018-03-30T14:23:29.481Z,2.30
2018-03-30T14:26:00.644Z,1.93
2018-03-30T14:28:28.108Z,2.17
2018-03-30T14:34:13.786Z,2.60
2018-03-30T14:37:07.708Z,2.60
2018-03-30T14:39:35.176Z,2.07
2018-03-30T14:42:02.612Z,2.37
2018-03-30T14:44:30.845Z,2.10
2018-03-30T14:47:18.791Z,2.37
2018-03-30T14:49:46.944Z,2.00
2018-03-30T14:52:17.935Z,2.40
2018-03-30T14:54:46.170Z,2.27
2018-03-30T14:57:29.375Z,2.10
2018-03-30T14:59:59.319Z,2.50
2018-03-30T15:02:45.248Z,2.00
2018-03-30T15:05:32.193Z,2.20
2018-03-30T15:08:20.112Z,2.30
2018-03-30T15:11:19.035Z,2.60
2018-03-30T15:13:53.018Z,1.90
2018-03-30T15:16:55.847Z,2.40
2018-03-30T15:19:35.632Z,2.20
2018-03-30T15:22:03.926Z,2.40
2018-03-30T15:24:34.814Z,2.37
2018-03-30T15:27:06.820Z,2.23
2018-03-30T15:29:54.866Z,2.77
2018-03-30T15:32:22.285Z,2.20
2018-03-30T15:34:49.733Z,2.40
2018-03-30T15:37:18.748Z,2.30
2018-03-30T15:39:51.652Z,2.07
2018-03-30T15:42:20.527Z,2.50
2018-03-30T15:44:48.783Z,2.00
2018-03-30T15:47:16.997Z,2.00
2018-03-30T15:49:44.451Z,2.30
2018-03-30T15:52:17.431Z,2.30
2018-03-30T15:54:45.651Z,1.90
2018-03-30T15:57:13.101Z,1.80
2018-03-30T15:59:40.562Z,1.90
2018-03-30T16:02:09.204Z,2.00
2018-03-30T16:04:36.640Z,1.90
2018-03-30T16:07:04.107Z,1.90
2018-03-30T16:09:41.502Z,1.93
2018-03-30T16:12:08.955Z,2.13
2018-03-30T16:14:36.414Z,2.30
2018-03-30T16:17:03.848Z,2.30
2018-03-30T16:19:30.798Z,2.27
2018-03-30T16:21:57.760Z,1.97
2018-03-30T16:24:24.739Z,2.50
2018-03-30T16:26:51.685Z,2.13
2018-03-30T16:29:18.638Z,2.13
2018-03-30T16:31:45.617Z,2.23
2018-03-30T16:34:12.592Z,2.97
2018-03-30T16:36:39.662Z,2.30
2018-03-30T16:39:06.641Z,2.53
2018-03-30T16:41:35.346Z,2.33
2018-03-30T16:44:02.299Z,2.23
2018-03-30T16:46:29.254Z,2.27
2018-03-30T16:48:58.536Z,2.40
2018-03-30T16:51:25.501Z,2.60
2018-03-30T16:53:52.450Z,2.77
2018-03-30T16:56:19.467Z,3.33
2018-03-30T16:58:46.430Z,3.00
2018-03-30T17:01:13.385Z,3.60
2018-03-30T17:03:40.360Z,3.10
2018-03-30T17:06:07.342Z,3.10
2018-03-30T17:08:35.059Z,3.90
2018-03-30T17:11:02.035Z,3.10
2018-03-30T17:13:28.996Z,2.97
2018-03-30T17:15:55.963Z,2.93
2018-03-30T17:18:23.719Z,3.40
2018-03-30T17:20:50.674Z,3.40
2018-03-30T17:23:17.629Z,3.07
2018-03-30T17:25:44.615Z,3.00
2018-03-30T17:28:11.572Z,2.90
2018-03-30T17:30:38.536Z,2.77
2018-03-30T17:33:05.502Z,3.13
2018-03-30T17:35:32.458Z,2.90
2018-03-30T17:37:59.419Z,3.20
2018-03-30T17:40:26.385Z,3.60
2018-03-30T17:42:53.369Z,3.17
2018-03-30T17:45:20.332Z,3.00
2018-03-30T17:47:47.287Z,2.80
2018-03-30T17:50:14.288Z,3.20
2018-03-30T17:52:41.279Z,3.00
2018-03-30T17:55:08.243Z,2.90
2018-03-30T17:57:35.268Z,2.67
2018-03-30T18:00:03.074Z,2.87
2018-03-30T18:02:30.780Z,2.90
2018-03-30T18:04:57.719Z,3.00
2018-03-30T18:07:24.688Z,3.30
2018-03-30T18:09:51.658Z,3.47
2018-03-30T18:12:19.688Z,3.30
2018-03-30T18:14:46.667Z,3.40
2018-03-30T18:17:13.632Z,3.37
2018-03-30T18:19:41.428Z,3.00
2018-03-30T18:24:42.764Z,3.40
2018-03-30T18:27:09.733Z,3.77
2018-03-30T18:29:37.463Z,3.30
2018-03-30T18:32:04.424Z,3.73
2018-03-30T18:34:31.550Z,3.43
2018-03-30T18:36:58.529Z,3.63
2018-03-30T18:39:25.509Z,3.43
2018-03-30T18:41:52.527Z,4.10
2018-03-30T18:44:19.490Z,3.67
2018-03-30T18:46:46.455Z,3.83
2018-03-30T18:49:14.222Z,3.33
2018-03-30T18:51:41.970Z,3.73
2018-03-30T18:54:08.957Z,3.43
2018-03-30T18:56:36.750Z,3.70
2018-03-30T18:59:03.999Z,3.93
2018-03-30T19:01:30.981Z,4.17
2018-03-30T19:03:57.938Z,3.60
2018-03-30T19:06:24.920Z,4.20
2018-03-30T19:08:51.916Z,4.20
2018-03-30T19:11:18.908Z,4.20
2018-03-30T19:13:45.864Z,3.83
2018-03-30T19:16:12.841Z,4.10
2018-03-30T19:18:40.586Z,4.80
2018-03-30T19:21:07.531Z,4.00
2018-03-30T19:23:34.470Z,4.10
2018-03-30T19:26:01.448Z,4.50
2018-03-30T19:28:28.410Z,4.07
2018-03-30T19:30:56.129Z,4.00
2018-03-30T19:33:23.112Z,4.27
2018-03-30T19:35:50.098Z,4.40
2018-03-30T19:38:17.836Z,4.63
2018-03-30T19:40:44.799Z,4.40
2018-03-30T19:43:12.534Z,4.33
2018-03-30T19:45:39.511Z,4.23
2018-03-30T19:48:06.489Z,4.13
2018-03-30T19:50:34.192Z,4.17
2018-03-30T19:53:01.184Z,3.87
2018-03-30T19:55:28.135Z,4.60
2018-03-30T19:57:55.097Z,5.10
2018-03-30T20:00:22.840Z,4.70
2018-03-30T20:02:49.801Z,4.20
2018-03-30T20:05:16.765Z,4.20
2018-03-30T20:07:43.731Z,3.80
2018-03-30T20:10:11.458Z,4.07
2018-03-30T20:12:38.411Z,3.80
2018-03-30T20:15:05.378Z,4.07
2018-03-30T20:17:32.336Z,4.00
2018-03-30T20:19:59.291Z,4.40
2018-03-30T20:22:26.244Z,3.20
2018-03-30T20:24:53.968Z,3.23
2018-03-30T20:27:20.932Z,2.90
2018-03-30T20:29:47.920Z,3.23
2018-03-30T20:32:15.656Z,2.80
2018-03-30T20:34:42.606Z,2.70
2018-03-30T20:37:09.556Z,2.70
2018-03-30T20:39:36.511Z,2.43
2018-03-30T20:42:03.480Z,2.23
2018-03-30T20:44:30.430Z,2.30
2018-03-30T20:46:57.430Z,3.10
2018-03-30T20:49:24.395Z,3.03
2018-03-30T20:51:51.355Z,2.70
2018-03-30T20:54:18.356Z,2.70
2018-03-30T20:56:45.242Z,2.20
2018-03-30T20:59:12.201Z,2.40
2018-03-30T21:01:39.154Z,2.40
2018-03-30T21:04:06.095Z,2.33
2018-03-30T21:06:33.085Z,2.37
2018-03-30T21:09:00.049Z,2.20
2018-03-30T21:11:27.002Z,2.57
2018-03-30T21:13:54.738Z,2.10
2018-03-30T21:16:21.695Z,2.50
2018-03-30T21:18:48.658Z,2.70
2018-03-30T21:21:15.623Z,2.60
2018-03-30T21:23:43.302Z,2.90
2018-03-30T21:26:11.136Z,2.43
2018-03-30T21:28:38.108Z,2.30
2018-03-30T21:31:05.058Z,2.73
2018-03-30T21:33:32.172Z,2.83
2018-03-30T21:35:59.192Z,2.57
2018-03-30T21:38:26.163Z,2.50
2018-03-30T21:40:53.109Z,3.47
2018-03-30T21:43:20.072Z,2.63
2018-03-30T21:45:47.191Z,2.67
2018-03-30T21:48:14.944Z,2.73
2018-03-30T21:53:15.403Z,2.60
2018-03-30T21:55:43.123Z,2.80
2018-03-30T21:58:10.088Z,2.80
2018-03-30T22:00:37.040Z,2.60
2018-03-30T22:03:03.987Z,3.00
2018-03-30T22:05:30.956Z,2.60
2018-03-30T22:07:57.918Z,3.53
2018-03-30T22:10:24.880Z,3.50
2018-03-30T22:12:51.822Z,3.13
2018-03-30T22:15:18.766Z,3.60
2018-03-30T22:17:45.737Z,3.10
2018-03-30T22:20:13.455Z,3.77
2018-03-30T22:22:40.402Z,3.60
2018-03-30T22:25:07.367Z,3.67
2018-03-30T22:27:34.388Z,3.87
2018-03-30T22:30:01.351Z,3.80
2018-03-30T22:32:28.294Z,3.00
2018-03-30T22:34:55.264Z,2.90
2018-03-30T22:37:22.229Z,2.80
2018-03-30T22:39:49.180Z,3.00
2018-03-30T22:42:16.134Z,2.60
2018-03-30T22:44:43.090Z,2.60
2018-03-30T22:47:10.046Z,2.70
2018-03-30T22:49:37.006Z,2.97
2018-03-30T22:52:03.956Z,3.03
2018-03-30T22:54:30.908Z,3.00
2018-03-30T22:56:57.862Z,2.90
2018-03-30T22:59:24.826Z,2.97
2018-03-30T23:01:51.761Z,3.17
2018-03-30T23:04:18.739Z,3.10
2018-03-30T23:06:45.695Z,2.80
2018-03-30T23:09:12.634Z,2.80
2018-03-30T23:11:40.370Z,3.27
2018-03-30T23:14:07.345Z,3.50
2018-03-30T23:16:34.303Z,3.07
2018-03-30T23:19:02.019Z,3.23
2018-03-30T23:21:28.992Z,2.93
2018-03-30T23:23:55.960Z,3.60
2018-03-30T23:26:22.912Z,3.70
2018-03-30T23:28:49.866Z,3.80
2018-03-30T23:31:16.818Z,3.70
2018-03-30T23:33:43.755Z,3.90
2018-03-30T23:36:10.719Z,4.50
2018-03-30T23:38:37.655Z,4.17
2018-03-30T23:41:04.615Z,4.57
2018-03-30T23:43:31.554Z,5.13
2018-03-30T23:45:58.509Z,4.43
2018-03-30T23:48:25.472Z,4.87
2018-03-30T23:50:52.450Z,4.57
2018-03-30T23:53:19.397Z,4.73
2018-03-30T23:55:47.121Z,5.03
2018-03-30T23:58:14.070Z,4.33
